createdAt,value
2018-04-24T00:00:19.322Z,23.10
2018-04-24T00:00:50.929Z,23.10
2018-04-24T00:01:22.514Z,23.09
2018-04-24T00:01:54.157Z,23.09
2018-04-24T00:02:25.769Z,23.08
2018-04-24T00:02:57.430Z,23.08
2018-04-24T00:03:29.000Z,23.08
2018-04-24T00:04:00.577Z,23.08
2018-04-24T00:04:32.162Z,23.08
2018-04-24T00:05:03.768Z,23.06
2018-04-24T00:05:35.348Z,23.08
2018-04-24T00:06:06.958Z,23.07
2018-04-24T00:06:38.550Z,23.06
2018-04-24T00:07:10.137Z,23.07
2018-04-24T00:07:41.741Z,23.05
2018-04-24T00:08:13.374Z,23.05
2018-04-24T00:08:44.954Z,23.05
2018-04-24T00:09:16.537Z,23.03
2018-04-24T00:09:48.128Z,23.05
2018-04-24T00:10:19.717Z,23.06
2018-04-24T00:10:51.288Z,23.08
2018-04-24T00:11:22.902Z,23.06
2018-04-24T00:11:54.494Z,23.07
2018-04-24T00:12:26.072Z,23.07
2018-04-24T00:12:57.690Z,23.08
2018-04-24T00:13:29.318Z,23.07
2018-04-24T00:14:00.895Z,23.05
2018-04-24T00:14:32.510Z,23.05
2018-04-24T00:15:04.116Z,23.05
2018-04-24T00:15:35.719Z,23.02
2018-04-24T00:16:07.308Z,23.02
2018-04-24T00:16:38.901Z,23.03
2018-04-24T00:17:10.525Z,23.03
2018-04-24T00:17:42.120Z,23.04
2018-04-24T00:18:13.761Z,23.04
2018-04-24T00:18:45.369Z,23.04
2018-04-24T00:19:16.952Z,23.03
2018-04-24T00:19:48.530Z,23.04
2018-04-24T00:20:20.142Z,23.04
2018-04-24T00:20:51.744Z,23.06
2018-04-24T00:21:23.337Z,23.05
2018-04-24T00:21:54.921Z,23.06
2018-04-24T00:22:26.549Z,23.06
2018-04-24T00:22:58.138Z,23.05
2018-04-24T00:23:29.734Z,23.06
2018-04-24T00:24:01.342Z,23.06
2018-04-24T00:24:32.954Z,23.06
2018-04-24T00:25:04.576Z,23.07
2018-04-24T00:25:36.186Z,23.07
2018-04-24T00:26:07.818Z,23.08
2018-04-24T00:26:39.396Z,23.08
2018-04-24T00:27:11.011Z,23.09
2018-04-24T00:27:42.629Z,23.09
2018-04-24T00:28:14.263Z,23.10
2018-04-24T00:28:45.865Z,23.09
2018-04-24T00:29:17.436Z,23.11
2018-04-24T00:29:49.012Z,23.09
2018-04-24T00:30:20.590Z,23.11
2018-04-24T00:30:52.205Z,23.14
2018-04-24T00:31:23.790Z,23.12
2018-04-24T00:31:55.397Z,23.14
2018-04-24T00:32:26.990Z,23.11
2018-04-24T00:32:58.586Z,23.12
2018-04-24T00:33:30.241Z,23.11
2018-04-24T00:34:01.856Z,23.10
2018-04-24T00:34:33.446Z,23.08
2018-04-24T00:35:05.168Z,23.08
2018-04-24T00:35:36.768Z,23.08
2018-04-24T00:36:08.350Z,23.08
2018-04-24T00:36:39.962Z,23.08
2018-04-24T00:37:11.574Z,23.08
2018-04-24T00:37:43.186Z,23.06
2018-04-24T00:38:14.797Z,23.09
2018-04-24T00:38:46.446Z,23.10
2018-04-24T00:39:18.048Z,23.11
2018-04-24T00:39:49.630Z,23.11
2018-04-24T00:40:21.201Z,23.10
2018-04-24T00:40:52.806Z,23.12
2018-04-24T00:41:24.470Z,23.09
2018-04-24T00:41:56.072Z,23.10
2018-04-24T00:42:27.687Z,23.08
2018-04-24T00:42:59.262Z,23.10
2018-04-24T00:43:30.848Z,23.11
2018-04-24T00:44:02.439Z,23.10
2018-04-24T00:44:34.028Z,23.10
2018-04-24T00:45:05.610Z,23.09
2018-04-24T00:45:37.190Z,23.08
2018-04-24T00:46:08.795Z,23.10
2018-04-24T00:46:40.431Z,23.09
2018-04-24T00:47:12.039Z,23.11
2018-04-24T00:47:43.626Z,23.12
2018-04-24T00:48:15.220Z,23.12
2018-04-24T00:48:46.806Z,23.12
2018-04-24T00:49:18.414Z,23.14
2018-04-24T00:49:50.021Z,23.15
2018-04-24T00:50:21.631Z,23.15
2018-04-24T00:50:53.238Z,23.14
2018-04-24T00:51:24.874Z,23.15
2018-04-24T00:51:56.460Z,23.14
2018-04-24T00:52:28.074Z,23.16
2018-04-24T00:52:59.691Z,23.11
2018-04-24T00:53:31.330Z,23.11
2018-04-24T00:54:02.908Z,23.13
2018-04-24T00:54:34.494Z,23.15
2018-04-24T00:55:06.082Z,23.07
2018-04-24T00:55:37.696Z,23.15
2018-04-24T00:56:09.290Z,23.15
2018-04-24T00:56:40.888Z,23.15
2018-04-24T00:57:12.468Z,23.15
2018-04-24T00:57:44.065Z,23.16
2018-04-24T00:58:15.676Z,23.17
2018-04-24T00:58:47.322Z,23.14
2018-04-24T00:59:18.925Z,23.13
2018-04-24T00:59:50.500Z,23.12
2018-04-24T01:00:22.092Z,23.12
2018-04-24T01:00:53.677Z,23.14
2018-04-24T01:01:25.258Z,23.13
2018-04-24T01:01:56.862Z,23.13
2018-04-24T01:02:28.464Z,23.15
2018-04-24T01:03:00.078Z,23.15
2018-04-24T01:03:31.729Z,23.14
2018-04-24T01:04:03.304Z,23.12
2018-04-24T01:04:34.896Z,23.12
2018-04-24T01:05:06.480Z,23.15
2018-04-24T01:05:38.066Z,23.16
2018-04-24T01:06:09.678Z,23.16
2018-04-24T01:06:41.271Z,23.15
2018-04-24T01:07:12.884Z,23.15
2018-04-24T01:07:44.456Z,23.12
2018-04-24T01:08:16.066Z,23.06
2018-04-24T01:08:47.693Z,23.16
2018-04-24T01:09:19.264Z,23.15
2018-04-24T01:09:50.864Z,23.17
2018-04-24T01:10:22.509Z,23.18
2018-04-24T01:10:54.104Z,23.16
2018-04-24T01:11:25.714Z,23.17
2018-04-24T01:11:57.299Z,23.16
2018-04-24T01:12:28.886Z,23.17
2018-04-24T01:13:00.474Z,23.16
2018-04-24T01:13:32.082Z,23.16
2018-04-24T01:14:03.718Z,23.15
2018-04-24T01:14:35.297Z,23.16
2018-04-24T01:15:06.902Z,23.18
2018-04-24T01:15:38.500Z,23.18
2018-04-24T01:16:10.158Z,23.18
2018-04-24T01:16:41.736Z,23.18
2018-04-24T01:17:13.308Z,23.18
2018-04-24T01:17:44.908Z,23.20
2018-04-24T01:18:16.504Z,23.20
2018-04-24T01:18:48.107Z,23.19
2018-04-24T01:19:19.713Z,23.20
2018-04-24T01:19:51.322Z,23.18
2018-04-24T01:20:22.910Z,23.18
2018-04-24T01:20:54.494Z,23.18
2018-04-24T01:21:26.157Z,23.16
2018-04-24T01:21:57.796Z,23.17
2018-04-24T01:22:29.380Z,23.21
2018-04-24T01:23:00.979Z,23.22
2018-04-24T01:23:32.585Z,23.20
2018-04-24T01:24:04.189Z,23.20
2018-04-24T01:24:35.784Z,23.20
2018-04-24T01:25:07.415Z,23.18
2018-04-24T01:25:39.013Z,23.19
2018-04-24T01:26:10.602Z,23.19
2018-04-24T01:26:42.173Z,23.17
2018-04-24T01:27:13.764Z,23.16
2018-04-24T01:27:45.339Z,23.15
2018-04-24T01:28:16.961Z,23.14
2018-04-24T01:28:48.571Z,23.15
2018-04-24T01:29:20.148Z,23.16
2018-04-24T01:29:51.747Z,23.16
2018-04-24T01:30:23.337Z,23.15
2018-04-24T01:30:54.912Z,23.17
2018-04-24T01:31:26.514Z,23.19
2018-04-24T01:31:58.102Z,23.18
2018-04-24T01:32:29.701Z,23.17
2018-04-24T01:33:01.356Z,23.18
2018-04-24T01:33:32.928Z,23.19
2018-04-24T01:34:04.534Z,23.18
2018-04-24T01:34:36.142Z,23.20
2018-04-24T01:35:07.760Z,23.21
2018-04-24T01:35:39.349Z,23.21
2018-04-24T01:36:10.929Z,23.22
2018-04-24T01:36:42.525Z,23.20
2018-04-24T01:37:14.162Z,23.24
2018-04-24T01:37:45.750Z,23.22
2018-04-24T01:38:17.337Z,23.22
2018-04-24T01:38:48.926Z,23.24
2018-04-24T01:39:20.521Z,23.22
2018-04-24T01:39:52.126Z,23.22
2018-04-24T01:40:23.738Z,23.22
2018-04-24T01:40:55.336Z,23.21
2018-04-24T01:41:26.908Z,23.23
2018-04-24T01:41:58.501Z,23.24
2018-04-24T01:42:30.143Z,23.25
2018-04-24T01:43:01.722Z,23.25
2018-04-24T01:43:33.320Z,23.25
2018-04-24T01:44:04.910Z,23.26
2018-04-24T01:44:36.490Z,23.25
2018-04-24T01:45:08.089Z,23.27
2018-04-24T01:45:39.697Z,23.23
2018-04-24T01:46:11.283Z,23.25
2018-04-24T01:46:42.890Z,23.24
2018-04-24T01:47:14.505Z,23.23
2018-04-24T01:47:46.156Z,23.21
2018-04-24T01:48:17.774Z,23.21
2018-04-24T01:48:49.377Z,23.20
2018-04-24T01:49:20.962Z,23.22
2018-04-24T01:49:52.551Z,23.22
2018-04-24T01:50:24.145Z,23.22
2018-04-24T01:50:55.722Z,23.22
2018-04-24T01:51:27.305Z,23.21
2018-04-24T01:51:58.956Z,23.19
2018-04-24T01:52:30.524Z,23.19
2018-04-24T01:53:02.115Z,23.20
2018-04-24T01:53:33.688Z,23.21
2018-04-24T01:54:05.261Z,23.18
2018-04-24T01:54:36.861Z,23.22
2018-04-24T01:55:08.455Z,23.22
2018-04-24T01:55:40.047Z,23.22
2018-04-24T01:56:11.640Z,23.22
2018-04-24T01:56:43.226Z,23.23
2018-04-24T01:57:14.854Z,23.22
2018-04-24T01:57:46.424Z,23.20
2018-04-24T01:58:18.002Z,23.22
2018-04-24T01:58:49.587Z,23.24
2018-04-24T01:59:21.171Z,23.22
2018-04-24T01:59:52.744Z,23.22
2018-04-24T02:00:24.381Z,23.22
2018-04-24T02:00:55.960Z,23.21
2018-04-24T02:01:27.532Z,23.20
2018-04-24T02:01:59.173Z,23.19
2018-04-24T02:02:30.812Z,23.20
2018-04-24T02:03:02.405Z,23.19
2018-04-24T02:03:33.996Z,23.20
2018-04-24T02:04:05.610Z,23.21
2018-04-24T02:04:37.220Z,23.20
2018-04-24T02:05:09.125Z,23.22
2018-04-24T02:05:40.733Z,23.21
2018-04-24T02:06:12.318Z,23.21
2018-04-24T02:06:43.926Z,23.22
2018-04-24T02:07:15.533Z,23.23
2018-04-24T02:07:47.141Z,23.23
2018-04-24T02:08:18.740Z,23.23
2018-04-24T02:08:50.333Z,23.25
2018-04-24T02:09:21.929Z,23.26
2018-04-24T02:09:53.517Z,23.26
2018-04-24T02:10:25.155Z,23.25
2018-04-24T02:10:56.761Z,23.25
2018-04-24T02:11:28.353Z,23.26
2018-04-24T02:11:59.962Z,23.26
2018-04-24T02:12:31.562Z,23.28
2018-04-24T02:13:03.180Z,23.28
2018-04-24T02:13:34.786Z,23.27
2018-04-24T02:14:06.409Z,23.30
2018-04-24T02:14:38.018Z,23.27
2018-04-24T02:15:09.617Z,23.29
2018-04-24T02:15:41.267Z,23.28
2018-04-24T02:16:12.857Z,23.28
2018-04-24T02:16:44.461Z,23.29
2018-04-24T02:17:16.056Z,23.29
2018-04-24T02:17:47.641Z,23.29
2018-04-24T02:18:19.270Z,23.28
2018-04-24T02:18:50.877Z,23.25
2018-04-24T02:19:22.490Z,23.26
2018-04-24T02:19:54.092Z,23.25
2018-04-24T02:20:25.770Z,23.25
2018-04-24T02:20:57.374Z,23.25
2018-04-24T02:21:28.961Z,23.23
2018-04-24T02:22:00.566Z,23.22
2018-04-24T02:22:32.209Z,23.22
2018-04-24T02:23:03.809Z,23.24
2018-04-24T02:23:35.424Z,23.24
2018-04-24T02:24:07.001Z,23.25
2018-04-24T02:24:38.614Z,23.25
2018-04-24T02:25:10.261Z,23.24
2018-04-24T02:25:41.878Z,23.22
2018-04-24T02:26:13.463Z,23.21
2018-04-24T02:26:45.055Z,23.20
2018-04-24T02:27:16.662Z,23.20
2018-04-24T02:27:48.246Z,23.18
2018-04-24T02:28:19.895Z,23.15
2018-04-24T02:28:51.505Z,23.18
2018-04-24T02:29:23.114Z,23.18
2018-04-24T02:29:54.726Z,23.18
2018-04-24T02:30:26.314Z,23.16
2018-04-24T02:30:57.894Z,23.15
2018-04-24T02:31:29.488Z,23.16
2018-04-24T02:32:01.065Z,23.17
2018-04-24T02:32:32.656Z,23.17
2018-04-24T02:33:04.306Z,23.17
2018-04-24T02:33:35.913Z,23.19
2018-04-24T02:34:07.494Z,23.20
2018-04-24T02:34:39.084Z,23.22
2018-04-24T02:35:10.677Z,23.22
2018-04-24T02:35:42.259Z,23.24
2018-04-24T02:36:13.872Z,23.23
2018-04-24T02:36:45.460Z,23.24
2018-04-24T02:37:17.042Z,23.23
2018-04-24T02:37:48.651Z,23.26
2018-04-24T02:38:20.282Z,23.26
2018-04-24T02:38:51.892Z,23.26
2018-04-24T02:39:23.478Z,23.26
2018-04-24T02:39:55.068Z,23.26
2018-04-24T02:40:26.698Z,23.26
2018-04-24T02:40:58.314Z,23.31
2018-04-24T02:41:29.926Z,23.36
2018-04-24T02:42:01.530Z,23.44
2018-04-24T02:42:33.186Z,23.40
2018-04-24T02:43:04.764Z,23.39
2018-04-24T02:43:36.350Z,23.37
2018-04-24T02:44:07.938Z,23.33
2018-04-24T02:44:39.519Z,23.29
2018-04-24T02:45:11.258Z,23.27
2018-04-24T02:45:42.856Z,23.25
2018-04-24T02:46:14.470Z,23.23
2018-04-24T02:46:46.077Z,23.22
2018-04-24T02:47:17.665Z,23.19
2018-04-24T02:47:49.282Z,23.16
2018-04-24T02:48:20.898Z,23.13
2018-04-24T02:48:52.490Z,22.56
2018-04-24T02:49:24.145Z,23.12
2018-04-24T02:49:55.750Z,23.11
2018-04-24T02:50:27.357Z,23.11
2018-04-24T02:50:58.946Z,23.16
2018-04-24T02:51:30.534Z,23.23
2018-04-24T02:52:02.114Z,23.30
2018-04-24T02:52:33.713Z,23.39
2018-04-24T02:53:05.327Z,23.42
2018-04-24T02:53:36.921Z,23.45
2018-04-24T02:54:08.506Z,23.46
2018-04-24T02:54:40.136Z,23.45
2018-04-24T02:55:11.721Z,23.43
2018-04-24T02:55:43.305Z,23.42
2018-04-24T02:56:14.876Z,23.42
2018-04-24T02:56:46.482Z,23.40
2018-04-24T02:57:18.093Z,23.33
2018-04-24T02:57:49.687Z,23.28
2018-04-24T02:58:21.270Z,23.25
2018-04-24T02:58:52.877Z,23.21
2018-04-24T02:59:24.466Z,23.16
2018-04-24T02:59:56.094Z,23.14
2018-04-24T03:00:27.677Z,23.10
2018-04-24T03:00:59.294Z,23.06
2018-04-24T03:01:30.892Z,23.04
2018-04-24T03:02:02.472Z,23.00
2018-04-24T03:02:34.069Z,22.95
2018-04-24T03:03:05.696Z,22.96
2018-04-24T03:03:37.314Z,22.95
2018-04-24T03:04:08.928Z,22.94
2018-04-24T03:04:40.568Z,22.93
2018-04-24T03:05:12.159Z,22.92
2018-04-24T03:05:43.775Z,22.92
2018-04-24T03:06:15.380Z,22.90
2018-04-24T03:06:46.971Z,22.89
2018-04-24T03:07:18.549Z,22.87
2018-04-24T03:07:50.206Z,22.87
2018-04-24T03:08:21.821Z,22.87
2018-04-24T03:08:53.409Z,22.84
2018-04-24T03:09:25.017Z,22.85
2018-04-24T03:09:56.606Z,22.85
2018-04-24T03:10:28.218Z,22.83
2018-04-24T03:10:59.878Z,22.83
2018-04-24T03:11:31.461Z,22.83
2018-04-24T03:12:03.074Z,22.82
2018-04-24T03:12:34.662Z,22.81
2018-04-24T03:13:06.305Z,22.81
2018-04-24T03:13:37.918Z,22.81
2018-04-24T03:14:09.526Z,22.81
2018-04-24T03:14:41.100Z,22.80
2018-04-24T03:15:12.689Z,22.79
2018-04-24T03:15:44.281Z,22.80
2018-04-24T03:16:15.870Z,22.78
2018-04-24T03:16:47.470Z,22.78
2018-04-24T03:17:19.099Z,22.77
2018-04-24T03:17:50.696Z,22.79
2018-04-24T03:18:22.286Z,22.79
2018-04-24T03:18:53.863Z,22.78
2018-04-24T03:19:25.467Z,22.79
2018-04-24T03:19:57.127Z,22.80
2018-04-24T03:20:28.704Z,22.78
2018-04-24T03:21:00.314Z,22.80
2018-04-24T03:21:31.902Z,22.80
2018-04-24T03:22:03.502Z,22.81
2018-04-24T03:22:35.113Z,22.83
2018-04-24T03:23:06.726Z,22.82
2018-04-24T03:23:38.310Z,22.84
2018-04-24T03:24:09.894Z,22.85
2018-04-24T03:24:41.478Z,22.87
2018-04-24T03:25:13.109Z,22.86
2018-04-24T03:25:44.710Z,22.87
2018-04-24T03:26:16.297Z,22.88
2018-04-24T03:26:47.882Z,22.90
2018-04-24T03:27:19.471Z,22.87
2018-04-24T03:27:51.078Z,22.89
2018-04-24T03:28:22.682Z,22.91
2018-04-24T03:28:54.281Z,22.92
2018-04-24T03:29:25.862Z,22.94
2018-04-24T03:29:57.496Z,22.94
2018-04-24T03:30:29.078Z,22.94
2018-04-24T03:31:00.672Z,22.95
2018-04-24T03:31:32.289Z,22.96
2018-04-24T03:32:03.897Z,22.98
2018-04-24T03:32:35.481Z,22.99
2018-04-24T03:33:07.105Z,23.00
2018-04-24T03:33:38.684Z,23.02
2018-04-24T03:34:10.295Z,23.03
2018-04-24T03:34:41.937Z,23.02
2018-04-24T03:35:13.516Z,23.01
2018-04-24T03:35:45.118Z,23.01
2018-04-24T03:36:16.704Z,23.01
2018-04-24T03:36:48.314Z,23.01
2018-04-24T03:37:19.903Z,23.02
2018-04-24T03:37:51.553Z,23.03
2018-04-24T03:38:23.150Z,23.02
2018-04-24T03:38:54.730Z,23.05
2018-04-24T03:39:26.333Z,23.06
2018-04-24T03:39:57.937Z,23.07
2018-04-24T03:40:29.512Z,23.07
2018-04-24T03:41:01.084Z,23.06
2018-04-24T03:41:32.698Z,23.07
2018-04-24T03:42:04.282Z,23.07
2018-04-24T03:42:35.874Z,23.06
2018-04-24T03:43:07.510Z,23.07
2018-04-24T03:43:39.107Z,23.08
2018-04-24T03:44:10.698Z,23.10
2018-04-24T03:44:42.277Z,23.09
2018-04-24T03:45:13.874Z,23.09
2018-04-24T03:45:45.470Z,23.09
2018-04-24T03:46:17.073Z,23.08
2018-04-24T03:46:48.662Z,23.10
2018-04-24T03:47:20.284Z,23.11
2018-04-24T03:47:51.868Z,23.11
2018-04-24T03:48:23.464Z,23.09
2018-04-24T03:48:55.069Z,23.10
2018-04-24T03:49:26.679Z,23.11
2018-04-24T03:49:58.286Z,23.11
2018-04-24T03:50:29.856Z,23.11
2018-04-24T03:51:01.452Z,23.11
2018-04-24T03:51:33.036Z,23.11
2018-04-24T03:52:04.622Z,23.11
2018-04-24T03:52:36.258Z,23.10
2018-04-24T03:53:07.847Z,23.09
2018-04-24T03:53:39.444Z,23.09
2018-04-24T03:54:11.016Z,23.09
2018-04-24T03:54:42.610Z,23.09
2018-04-24T03:55:14.225Z,23.09
2018-04-24T03:55:45.825Z,23.09
2018-04-24T03:56:17.423Z,23.09
2018-04-24T03:56:49.020Z,23.09
2018-04-24T03:57:20.615Z,23.07
2018-04-24T03:57:52.283Z,23.07
2018-04-24T03:58:23.887Z,23.07
2018-04-24T03:58:55.478Z,23.09
2018-04-24T03:59:27.062Z,23.09
2018-04-24T03:59:58.666Z,23.10
2018-04-24T04:00:30.265Z,23.12
2018-04-24T04:01:01.854Z,23.09
2018-04-24T04:01:33.465Z,23.07
2018-04-24T04:02:05.077Z,23.06
2018-04-24T04:02:36.662Z,23.08
2018-04-24T04:03:08.310Z,23.07
2018-04-24T04:03:39.894Z,23.07
2018-04-24T04:04:11.478Z,23.08
2018-04-24T04:04:43.072Z,23.06
2018-04-24T04:05:14.694Z,23.04
2018-04-24T04:05:46.272Z,23.05
2018-04-24T04:06:17.858Z,23.04
2018-04-24T04:06:49.496Z,23.01
2018-04-24T04:07:21.093Z,23.01
2018-04-24T04:07:52.697Z,23.00
2018-04-24T04:08:24.286Z,22.98
2018-04-24T04:08:55.852Z,22.98
2018-04-24T04:09:27.438Z,22.97
2018-04-24T04:09:59.066Z,22.97
2018-04-24T04:10:30.695Z,22.96
2018-04-24T04:11:02.298Z,22.95
2018-04-24T04:11:33.929Z,22.94
2018-04-24T04:12:05.527Z,22.93
2018-04-24T04:12:37.137Z,22.92
2018-04-24T04:13:08.726Z,22.89
2018-04-24T04:13:40.314Z,22.90
2018-04-24T04:14:11.898Z,22.89
2018-04-24T04:14:43.502Z,22.88
2018-04-24T04:15:15.091Z,22.88
2018-04-24T04:15:46.746Z,22.87
2018-04-24T04:16:18.334Z,22.88
2018-04-24T04:16:49.941Z,22.88
2018-04-24T04:17:21.554Z,22.87
2018-04-24T04:17:53.166Z,22.86
2018-04-24T04:18:24.766Z,22.84
2018-04-24T04:18:56.341Z,22.83
2018-04-24T04:19:27.936Z,22.83
2018-04-24T04:19:59.536Z,22.81
2018-04-24T04:20:31.126Z,22.82
2018-04-24T04:21:02.775Z,22.82
2018-04-24T04:21:34.370Z,22.82
2018-04-24T04:22:05.954Z,22.82
2018-04-24T04:22:37.557Z,22.81
2018-04-24T04:23:09.157Z,22.81
2018-04-24T04:23:40.756Z,22.80
2018-04-24T04:24:12.373Z,22.79
2018-04-24T04:24:43.966Z,22.79
2018-04-24T04:25:15.572Z,22.78
2018-04-24T04:25:47.217Z,22.78
2018-04-24T04:26:18.826Z,22.77
2018-04-24T04:26:50.414Z,22.77
2018-04-24T04:27:22.017Z,22.78
2018-04-24T04:27:53.596Z,22.77
2018-04-24T04:28:25.197Z,22.78
2018-04-24T04:28:56.797Z,22.79
2018-04-24T04:29:28.383Z,22.80
2018-04-24T04:29:59.985Z,22.81
2018-04-24T04:30:31.574Z,22.81
2018-04-24T04:31:03.207Z,22.81
2018-04-24T04:31:34.819Z,22.82
2018-04-24T04:32:06.402Z,22.83
2018-04-24T04:32:37.973Z,22.83
2018-04-24T04:33:09.547Z,22.84
2018-04-24T04:33:41.117Z,22.88
2018-04-24T04:34:12.692Z,22.88
2018-04-24T04:34:44.342Z,22.88
2018-04-24T04:35:15.916Z,22.89
2018-04-24T04:35:47.530Z,22.89
2018-04-24T04:36:19.124Z,22.89
2018-04-24T04:36:50.720Z,22.89
2018-04-24T04:37:22.342Z,22.89
2018-04-24T04:37:53.930Z,22.89
2018-04-24T04:38:25.531Z,22.89
2018-04-24T04:38:57.115Z,22.90
2018-04-24T04:39:28.727Z,22.90
2018-04-24T04:40:00.394Z,22.90
2018-04-24T04:40:32.001Z,22.91
2018-04-24T04:41:03.614Z,22.90
2018-04-24T04:41:35.210Z,22.90
2018-04-24T04:42:06.790Z,22.89
2018-04-24T04:42:38.376Z,22.88
2018-04-24T04:43:09.962Z,22.89
2018-04-24T04:43:41.532Z,22.90
2018-04-24T04:44:13.101Z,22.90
2018-04-24T04:44:44.738Z,22.91
2018-04-24T04:45:16.367Z,22.92
2018-04-24T04:45:48.025Z,22.91
2018-04-24T04:46:19.598Z,22.91
2018-04-24T04:46:51.206Z,22.92
2018-04-24T04:47:22.804Z,22.93
2018-04-24T04:47:54.457Z,22.94
2018-04-24T04:48:26.022Z,22.95
2018-04-24T04:48:57.614Z,22.95
2018-04-24T04:49:29.202Z,22.95
2018-04-24T04:50:00.810Z,22.95
2018-04-24T04:50:32.426Z,22.96
2018-04-24T04:51:04.164Z,22.98
2018-04-24T04:51:35.868Z,22.97
2018-04-24T04:52:07.412Z,22.98
2018-04-24T04:52:38.992Z,22.98
2018-04-24T04:53:10.569Z,22.98
2018-04-24T04:53:42.164Z,22.97
2018-04-24T04:54:13.754Z,22.99
2018-04-24T04:54:45.361Z,23.00
2018-04-24T04:55:16.940Z,23.01
2018-04-24T04:55:48.529Z,22.99
2018-04-24T04:56:20.180Z,23.00
2018-04-24T04:56:51.767Z,23.01
2018-04-24T04:57:23.388Z,23.02
2018-04-24T04:57:54.974Z,23.00
2018-04-24T04:58:26.558Z,23.02
2018-04-24T04:58:58.166Z,23.04
2018-04-24T04:59:29.749Z,23.04
2018-04-24T05:00:01.351Z,23.06
2018-04-24T05:00:32.990Z,23.07
2018-04-24T05:01:04.601Z,22.91
2018-04-24T05:01:36.214Z,23.13
2018-04-24T05:02:07.821Z,23.13
2018-04-24T05:02:39.501Z,23.11
2018-04-24T05:03:11.099Z,23.12
2018-04-24T05:03:42.677Z,23.11
2018-04-24T05:04:14.262Z,23.10
2018-04-24T05:04:45.857Z,23.11
2018-04-24T05:05:17.513Z,23.09
2018-04-24T05:05:49.072Z,23.09
2018-04-24T05:06:20.691Z,23.08
2018-04-24T05:06:52.297Z,23.09
2018-04-24T05:07:23.878Z,23.11
2018-04-24T05:07:55.492Z,23.11
2018-04-24T05:08:27.102Z,23.10
2018-04-24T05:08:58.690Z,23.10
2018-04-24T05:09:30.264Z,23.12
2018-04-24T05:10:01.890Z,23.12
2018-04-24T05:10:33.489Z,23.11
2018-04-24T05:11:05.094Z,23.11
2018-04-24T05:11:36.697Z,23.10
2018-04-24T05:12:08.385Z,23.08
2018-04-24T05:12:39.904Z,23.09
2018-04-24T05:13:11.513Z,23.08
2018-04-24T05:13:43.089Z,23.08
2018-04-24T05:14:14.713Z,23.08
2018-04-24T05:14:46.285Z,23.07
2018-04-24T05:15:17.894Z,23.07
2018-04-24T05:15:49.502Z,23.03
2018-04-24T05:16:21.110Z,23.05
2018-04-24T05:16:52.693Z,23.04
2018-04-24T05:17:24.288Z,23.03
2018-04-24T05:17:55.877Z,23.03
2018-04-24T05:18:27.457Z,23.03
2018-04-24T05:18:59.066Z,23.02
2018-04-24T05:19:30.734Z,23.02
2018-04-24T05:20:02.314Z,23.02
2018-04-24T05:20:33.906Z,23.02
2018-04-24T05:21:05.476Z,23.02
2018-04-24T05:21:37.093Z,22.99
2018-04-24T05:22:08.702Z,22.99
2018-04-24T05:22:40.290Z,23.01
2018-04-24T05:23:11.893Z,22.99
2018-04-24T05:23:43.478Z,22.98
2018-04-24T05:24:15.090Z,23.00
2018-04-24T05:24:46.749Z,23.00
2018-04-24T05:25:18.344Z,23.00
2018-04-24T05:25:49.941Z,22.98
2018-04-24T05:26:21.530Z,22.97
2018-04-24T05:26:53.103Z,22.96
2018-04-24T05:27:24.709Z,22.94
2018-04-24T05:27:56.337Z,22.99
2018-04-24T05:28:27.925Z,22.98
2018-04-24T05:28:59.534Z,22.96
2018-04-24T05:29:31.146Z,22.96
2018-04-24T05:30:02.734Z,22.95
2018-04-24T05:30:34.322Z,22.98
2018-04-24T05:31:05.934Z,22.98
2018-04-24T05:31:37.533Z,22.96
2018-04-24T05:32:09.128Z,22.97
2018-04-24T05:32:40.745Z,22.93
2018-04-24T05:33:12.320Z,22.96
2018-04-24T05:33:43.934Z,22.96
2018-04-24T05:34:15.523Z,22.94
2018-04-24T05:34:47.190Z,22.95
2018-04-24T05:35:18.772Z,22.96
2018-04-24T05:35:50.472Z,22.95
2018-04-24T05:36:21.995Z,22.93
2018-04-24T05:36:53.606Z,22.94
2018-04-24T05:37:25.188Z,22.94
2018-04-24T05:37:56.770Z,22.92
2018-04-24T05:38:28.345Z,22.91
2018-04-24T05:38:59.933Z,22.91
2018-04-24T05:39:31.542Z,22.90
2018-04-24T05:40:03.169Z,22.90
2018-04-24T05:40:34.773Z,22.89
2018-04-24T05:41:06.381Z,22.89
2018-04-24T05:41:37.986Z,22.88
2018-04-24T05:42:09.594Z,22.86
2018-04-24T05:42:41.197Z,22.88
2018-04-24T05:43:12.796Z,22.87
2018-04-24T05:43:44.446Z,22.88
2018-04-24T05:44:16.058Z,22.87
2018-04-24T05:44:47.674Z,22.87
2018-04-24T05:45:19.330Z,22.87
2018-04-24T05:45:50.889Z,22.87
2018-04-24T05:46:22.500Z,22.87
2018-04-24T05:46:54.086Z,22.86
2018-04-24T05:47:25.689Z,22.88
2018-04-24T05:47:57.298Z,22.88
2018-04-24T05:48:28.982Z,22.88
2018-04-24T05:49:00.580Z,22.89
2018-04-24T05:49:32.160Z,22.88
2018-04-24T05:50:03.765Z,22.88
2018-04-24T05:50:35.378Z,22.89
2018-04-24T05:51:06.952Z,22.89
2018-04-24T05:51:38.535Z,22.89
2018-04-24T05:52:10.126Z,22.90
2018-04-24T05:52:41.707Z,22.90
2018-04-24T05:53:13.300Z,22.93
2018-04-24T05:53:44.933Z,22.90
2018-04-24T05:54:16.546Z,22.90
2018-04-24T05:54:48.158Z,22.91
2018-04-24T05:55:19.749Z,22.91
2018-04-24T05:55:51.334Z,22.91
2018-04-24T05:56:22.937Z,22.91
2018-04-24T05:56:54.540Z,22.90
2018-04-24T05:57:26.125Z,22.91
2018-04-24T05:57:57.710Z,22.89
2018-04-24T05:58:29.314Z,22.90
2018-04-24T05:59:00.942Z,22.90
2018-04-24T05:59:32.530Z,22.88
2018-04-24T06:00:04.172Z,22.87
2018-04-24T06:00:35.766Z,22.86
2018-04-24T06:01:07.350Z,22.87
2018-04-24T06:01:38.938Z,22.87
2018-04-24T06:02:10.526Z,22.86
2018-04-24T06:02:42.133Z,22.86
2018-04-24T06:03:13.722Z,22.86
2018-04-24T06:03:45.293Z,22.84
2018-04-24T06:04:16.878Z,22.82
2018-04-24T06:04:48.504Z,22.82
2018-04-24T06:05:20.142Z,22.82
2018-04-24T06:05:51.725Z,22.82
2018-04-24T06:06:23.297Z,22.83
2018-04-24T06:06:54.869Z,22.84
2018-04-24T06:07:26.477Z,22.84
2018-04-24T06:07:58.090Z,22.83
2018-04-24T06:08:29.713Z,22.83
2018-04-24T06:09:01.310Z,22.83
2018-04-24T06:09:32.890Z,22.83
2018-04-24T06:10:04.461Z,22.82
2018-04-24T06:10:36.098Z,22.82
2018-04-24T06:11:07.702Z,22.82
2018-04-24T06:11:39.310Z,22.83
2018-04-24T06:12:10.924Z,22.84
2018-04-24T06:12:42.542Z,22.84
2018-04-24T06:13:14.130Z,22.84
2018-04-24T06:13:45.716Z,22.84
2018-04-24T06:14:17.307Z,22.85
2018-04-24T06:14:48.890Z,22.85
2018-04-24T06:15:20.479Z,22.86
2018-04-24T06:15:52.138Z,22.83
2018-04-24T06:16:23.725Z,22.87
2018-04-24T06:16:55.320Z,22.87
2018-04-24T06:17:26.913Z,22.88
2018-04-24T06:17:58.516Z,22.89
2018-04-24T06:18:30.126Z,22.91
2018-04-24T06:19:01.714Z,22.91
2018-04-24T06:19:33.324Z,22.93
2018-04-24T06:20:04.933Z,22.92
2018-04-24T06:20:36.518Z,22.93
2018-04-24T06:21:08.106Z,22.93
2018-04-24T06:21:39.719Z,22.94
2018-04-24T06:22:11.306Z,22.97
2018-04-24T06:22:42.946Z,22.96
2018-04-24T06:23:14.553Z,22.95
2018-04-24T06:23:46.162Z,22.95
2018-04-24T06:24:17.751Z,22.94
2018-04-24T06:24:49.358Z,22.96
2018-04-24T06:25:21.017Z,22.96
2018-04-24T06:25:52.630Z,22.96
2018-04-24T06:26:24.218Z,22.97
2018-04-24T06:26:55.822Z,22.96
2018-04-24T06:27:27.429Z,22.95
2018-04-24T06:27:59.032Z,22.95
2018-04-24T06:28:30.671Z,22.94
2018-04-24T06:29:02.221Z,22.94
2018-04-24T06:29:33.819Z,22.94
2018-04-24T06:30:05.409Z,22.93
2018-04-24T06:30:37.048Z,22.93
2018-04-24T06:31:08.658Z,22.92
2018-04-24T06:31:40.246Z,22.91
2018-04-24T06:32:11.850Z,22.90
2018-04-24T06:32:43.506Z,22.88
2018-04-24T06:33:15.100Z,22.88
2018-04-24T06:33:46.711Z,22.87
2018-04-24T06:34:18.307Z,22.90
2018-04-24T06:34:49.880Z,22.90
2018-04-24T06:35:21.482Z,22.91
2018-04-24T06:35:53.102Z,22.91
2018-04-24T06:36:24.761Z,22.90
2018-04-24T06:36:56.387Z,22.92
2018-04-24T06:37:27.988Z,22.92
2018-04-24T06:37:59.585Z,22.92
2018-04-24T06:38:31.170Z,22.94
2018-04-24T06:39:02.767Z,22.95
2018-04-24T06:39:34.350Z,22.93
2018-04-24T06:40:05.920Z,22.96
2018-04-24T06:40:37.493Z,22.95
2018-04-24T06:41:09.084Z,22.96
2018-04-24T06:41:40.664Z,22.97
2018-04-24T06:42:12.403Z,22.97
2018-04-24T06:42:43.948Z,22.98
2018-04-24T06:43:15.557Z,22.98
2018-04-24T06:43:47.149Z,22.97
2018-04-24T06:44:18.720Z,22.96
2018-04-24T06:44:50.302Z,22.96
2018-04-24T06:45:21.896Z,22.95
2018-04-24T06:45:53.481Z,22.95
2018-04-24T06:46:25.069Z,22.95
2018-04-24T06:46:56.658Z,22.95